Aviation Digital Data Service (ADDS)

Output produced by METARs form (0040 UTC 23 March 2019)
found at http://www.aviationweather.gov/metar/data/
 
METAR text: EPKT 230030Z 08004KT 0050 R27/0275N FG VV000 03/03 Q1030
Conditions at: EPKT (KATOWICE/PYRZOWI, PL) observed 0030 UTC 23 March 2019
Temperature: 3.0°C (37°F)
Dewpoint: 3.0°C (37°F) [RH = 100%]
Pressure (altimeter): 30.41 inches Hg (1030.0 mb)
Winds: from the E (80 degrees) at 5 MPH (4 knots; 2.1 m/s)
Visibility: 0.03 miles (0.05 km)
Ceiling: indefinite ceiling with vertical visibility of 0 feet AGL
Clouds: obscured sky
Weather: FG  (fog)

METAR text: EPKT 230000Z 07003KT 0050 R27/0275N FG VV000 04/03 Q1030
Conditions at: EPKT (KATOWICE/PYRZOWI, PL) observed 0000 UTC 23 March 2019
Temperature: 4.0°C (39°F)
Dewpoint: 3.0°C (37°F) [RH = 93%]
Pressure (altimeter): 30.41 inches Hg (1030.0 mb)
Winds: from the ENE (70 degrees) at 3 MPH (3 knots; 1.5 m/s)
Visibility: 0.03 miles (0.05 km)
Ceiling: indefinite ceiling with vertical visibility of 0 feet AGL
Clouds: obscured sky
Weather: FG  (fog)

Forecast for: EPKT (KATOWICE/PYRZOWI, PL)
Text: TAF EPKT 222330Z 2300/2324 VRB02KT 1000 BR NSC
Forecast period: 0000 to 0800 UTC 23 March 2019
Forecast type: FROM: standard forecast or significant change
Winds: variable direction winds at 2 MPH (2 knots; 1.0 m/s)
Visibility: 0.62 miles (1.00 km)
Ceiling: unknown
Clouds: missing
Weather: BR  (mist)
Text: TEMPO 2300/2307 0300 FG
Forecast period: 0000 to 0700 UTC 23 March 2019
Forecast type: TEMPORARY: The following changes expected for less than half the time period
Visibility: 0.19 miles (0.31 km)
Ceiling: unknown
Clouds: missing
Weather: FG  (fog)
Text: BECMG 2308/2311 CAVOK
Forecast period: 0800 UTC 23 March 2019 to 0000 UTC 24 March 2019
Forecast type: BECOMING: Conditions expected to become as follows by 1100 UTC 23 March 2019
Winds: variable direction winds at 2 MPH (2 knots; 1.0 m/s)
Visibility: 6 or more miles 10+ km)
Ceiling: unknown
Clouds: missing
Weather: NSW  (no significant weather)